createdAt,value
2018-07-24T00:00:19.807Z,98776.87
2018-07-24T00:02:48.833Z,98771.39
2018-07-24T00:05:17.867Z,98775.48
2018-07-24T00:07:46.901Z,98769.48
2018-07-24T00:10:15.932Z,98772.22
2018-07-24T00:12:44.888Z,98771.39
2018-07-24T00:15:13.856Z,98770.58
2018-07-24T00:17:42.868Z,98771.95
2018-07-24T00:20:11.884Z,98761.55
2018-07-24T00:22:40.912Z,98757.19
2018-07-24T00:25:09.887Z,98766.22
2018-07-24T00:27:39.069Z,98764.28
2018-07-24T00:30:08.235Z,98756.63
2018-07-24T00:32:37.212Z,98756.09
2018-07-24T00:35:06.281Z,98761.56
2018-07-24T00:37:35.281Z,98761.55
2018-07-24T00:40:04.356Z,98756.37
2018-07-24T00:42:33.430Z,98761.00
2018-07-24T00:45:02.513Z,98758.27
2018-07-24T00:47:31.538Z,98757.98
2018-07-24T00:50:00.569Z,98752.52
2018-07-24T00:52:29.660Z,98745.42
2018-07-24T00:54:58.633Z,98754.98
2018-07-24T00:57:27.660Z,98750.89
2018-07-24T00:59:56.615Z,98747.88
2018-07-24T01:02:25.667Z,98741.61
2018-07-24T01:04:54.677Z,98745.98
2018-07-24T01:07:23.679Z,98739.95
2018-07-24T01:09:52.728Z,98749.52
2018-07-24T01:12:21.749Z,98743.77
2018-07-24T01:14:50.741Z,98743.77
2018-07-24T01:17:19.700Z,98747.34
2018-07-24T01:19:48.815Z,98748.98
2018-07-24T01:22:17.845Z,98741.05
2018-07-24T01:24:46.964Z,98735.58
2018-07-24T01:27:16.013Z,98741.05
2018-07-24T01:29:45.084Z,98741.04
2018-07-24T01:32:14.059Z,98747.33
2018-07-24T01:34:43.086Z,98744.87
2018-07-24T01:37:12.234Z,98744.33
2018-07-24T01:39:41.213Z,98751.16
2018-07-24T01:42:10.242Z,98751.70
2018-07-24T01:44:39.223Z,98757.17
2018-07-24T01:47:08.233Z,98751.45
2018-07-24T01:49:37.222Z,98758.00
2018-07-24T01:52:06.191Z,98759.09
2018-07-24T01:54:35.324Z,98763.74
2018-07-24T01:57:04.296Z,98762.91
2018-07-24T01:59:33.275Z,98759.92
2018-07-24T02:02:02.296Z,98754.44
2018-07-24T02:04:31.266Z,98750.33
2018-07-24T02:07:00.299Z,98752.52
2018-07-24T02:09:29.324Z,98758.27
2018-07-24T02:11:58.405Z,98747.34
2018-07-24T02:14:27.409Z,98749.52
2018-07-24T02:16:56.435Z,98753.63
2018-07-24T02:19:25.471Z,98756.63
2018-07-24T02:21:54.441Z,98746.80
2018-07-24T02:24:23.516Z,98745.95
2018-07-24T02:26:52.526Z,98748.42
2018-07-24T02:29:21.553Z,98750.61
2018-07-24T02:31:50.602Z,98747.59
2018-07-24T02:34:19.592Z,98738.84
2018-07-24T02:36:48.578Z,98742.13
2018-07-24T02:39:17.540Z,98742.40
2018-07-24T02:41:46.574Z,98745.68
2018-07-24T02:44:15.589Z,98742.95
2018-07-24T02:46:44.557Z,98739.66
2018-07-24T02:49:13.559Z,98737.78
2018-07-24T02:51:42.589Z,98734.49
2018-07-24T02:54:11.576Z,98736.67
2018-07-24T02:56:40.655Z,98738.31
2018-07-24T02:59:09.711Z,98744.34
2018-07-24T03:01:38.685Z,98737.22
2018-07-24T03:04:07.820Z,98735.32
2018-07-24T03:06:36.906Z,98735.03
2018-07-24T03:09:08.552Z,98736.68
2018-07-24T03:11:37.936Z,98736.11
2018-07-24T03:14:07.325Z,98736.16
2018-07-24T03:16:36.419Z,98738.89
2018-07-24T03:19:05.400Z,98740.27
2018-07-24T03:21:34.434Z,98738.63
2018-07-24T03:24:03.517Z,98743.25
2018-07-24T03:26:32.548Z,98730.67
2018-07-24T03:29:01.574Z,98736.41
2018-07-24T03:31:30.535Z,98742.44
2018-07-24T03:33:59.593Z,98741.31
2018-07-24T03:36:28.625Z,98744.88
2018-07-24T03:38:57.652Z,98743.25
2018-07-24T03:41:26.688Z,98748.97
2018-07-24T03:43:55.756Z,98750.86
2018-07-24T03:46:24.799Z,98750.30
2018-07-24T03:48:53.797Z,98751.09
2018-07-24T03:51:22.875Z,98756.78
2018-07-24T03:53:51.845Z,98750.44
2018-07-24T03:56:20.788Z,98756.14
2018-07-24T03:58:49.869Z,98747.28
2018-07-24T04:01:18.909Z,98748.55
2018-07-24T04:03:47.951Z,98752.86
2018-07-24T04:06:16.909Z,98755.57
2018-07-24T04:08:45.988Z,98761.81
2018-07-24T04:11:15.072Z,98759.56
2018-07-24T04:13:44.272Z,98766.13
2018-07-24T04:16:13.320Z,98768.22
2018-07-24T04:18:50.151Z,98764.59
2018-07-24T04:21:20.044Z,98764.13
2018-07-24T04:23:49.889Z,98767.70
2018-07-24T04:26:18.927Z,98766.06
2018-07-24T04:28:47.880Z,98761.91
2018-07-24T04:31:17.826Z,98767.31
2018-07-24T04:33:46.837Z,98775.77
2018-07-24T04:36:15.918Z,98773.00
2018-07-24T04:38:44.977Z,98774.11
2018-07-24T04:41:13.953Z,98773.21
2018-07-24T04:43:43.054Z,98777.17
2018-07-24T04:46:12.008Z,98776.78
2018-07-24T04:48:41.250Z,98780.16
2018-07-24T04:51:10.269Z,98782.47
2018-07-24T04:53:39.301Z,98783.16
2018-07-24T04:56:08.346Z,98780.32
2018-07-24T04:58:37.380Z,98777.84
2018-07-24T05:01:06.478Z,98774.34
2018-07-24T05:03:35.477Z,98781.14
2018-07-24T05:06:04.522Z,98774.56
2018-07-24T05:08:33.497Z,98777.31
2018-07-24T05:11:02.516Z,98783.69
2018-07-24T05:13:31.521Z,98780.30
2018-07-24T05:16:00.598Z,98775.41
2018-07-24T05:18:29.587Z,98783.56
2018-07-24T05:20:58.540Z,98785.83
2018-07-24T05:23:27.673Z,98791.77
2018-07-24T05:25:56.639Z,98791.02
2018-07-24T05:28:25.605Z,98795.06
2018-07-24T05:30:54.629Z,98791.63
2018-07-24T05:33:23.588Z,98793.05
2018-07-24T05:35:52.611Z,98786.75
2018-07-24T05:38:21.644Z,98789.02
2018-07-24T05:40:50.614Z,98796.06
2018-07-24T05:43:19.692Z,98807.56
2018-07-24T05:45:48.713Z,98813.89
2018-07-24T05:48:17.777Z,98816.73
2018-07-24T05:50:46.806Z,98819.55
2018-07-24T05:53:15.901Z,98816.64
2018-07-24T05:55:44.913Z,98830.88
2018-07-24T05:58:13.896Z,98845.86
2018-07-24T06:00:42.865Z,98844.91
2018-07-24T06:03:11.905Z,98843.36
2018-07-24T06:05:41.009Z,98840.69
2018-07-24T06:08:10.005Z,98835.72
2018-07-24T06:10:39.128Z,98834.11
2018-07-24T06:13:08.168Z,98836.99
2018-07-24T06:15:37.164Z,98836.83
2018-07-24T06:18:06.622Z,98845.77
2018-07-24T06:20:35.655Z,98848.78
2018-07-24T06:23:05.301Z,98850.79
2018-07-24T06:25:34.261Z,98853.09
2018-07-24T06:28:03.388Z,98853.36
2018-07-24T06:30:32.425Z,98848.39
2018-07-24T06:33:01.456Z,98843.78
2018-07-24T06:35:30.484Z,98832.16
2018-07-24T06:37:59.549Z,98829.62
2018-07-24T06:40:28.557Z,98831.06
2018-07-24T06:42:57.641Z,98825.78
2018-07-24T06:45:26.748Z,98823.67
2018-07-24T06:47:55.835Z,98824.52
2018-07-24T06:50:24.931Z,98820.72
2018-07-24T06:52:53.934Z,98821.92
2018-07-24T06:55:22.881Z,98832.77
2018-07-24T06:57:51.917Z,98827.54
2018-07-24T07:00:20.937Z,98825.52
2018-07-24T07:02:50.133Z,98831.02
2018-07-24T07:05:19.156Z,98827.12
2018-07-24T07:07:48.195Z,98834.34
2018-07-24T07:10:17.368Z,98836.92
2018-07-24T07:12:46.344Z,98842.36
2018-07-24T07:15:15.377Z,98843.13
2018-07-24T07:17:44.424Z,98850.77
2018-07-24T07:20:13.461Z,98854.02
2018-07-24T07:22:42.467Z,98855.75
2018-07-24T07:25:11.535Z,98862.80
2018-07-24T07:27:40.590Z,98858.48
2018-07-24T07:30:09.580Z,98858.30
2018-07-24T07:32:38.631Z,98857.53
2018-07-24T07:35:07.569Z,98855.16
2018-07-24T07:37:36.695Z,98857.11
2018-07-24T07:40:06.021Z,98860.28
2018-07-24T07:42:35.007Z,98857.61
2018-07-24T07:45:04.032Z,98866.91
2018-07-24T07:47:33.065Z,98861.56
2018-07-24T07:50:02.197Z,98860.82
2018-07-24T07:52:31.260Z,98864.58
2018-07-24T07:55:00.405Z,98871.23
2018-07-24T07:57:29.449Z,98864.05
2018-07-24T07:59:58.482Z,98871.06
2018-07-24T08:02:27.510Z,98878.88
2018-07-24T08:04:56.497Z,98884.18
2018-07-24T08:07:25.484Z,98884.18
2018-07-24T08:09:54.549Z,98885.72
2018-07-24T08:12:23.741Z,98888.30
2018-07-24T08:14:52.733Z,98891.14
2018-07-24T08:17:21.845Z,98885.66
2018-07-24T08:19:50.894Z,98882.70
2018-07-24T08:22:19.934Z,98888.08
2018-07-24T08:24:48.981Z,98888.20
2018-07-24T08:27:18.026Z,98886.27
2018-07-24T08:29:47.158Z,98886.07
2018-07-24T08:32:16.254Z,98887.53
2018-07-24T08:34:45.309Z,98889.95
2018-07-24T08:37:14.346Z,98885.63
2018-07-24T08:39:43.354Z,98885.73
2018-07-24T08:42:12.405Z,98886.77
2018-07-24T08:44:41.416Z,98879.45
2018-07-24T08:47:10.501Z,98882.80
2018-07-24T08:49:39.459Z,98883.42
2018-07-24T08:52:08.468Z,98875.75
2018-07-24T08:54:37.734Z,98873.89
2018-07-24T08:57:06.798Z,98873.45
2018-07-24T08:59:35.849Z,98879.08
2018-07-24T09:02:04.821Z,98876.66
2018-07-24T09:04:33.840Z,98873.16
2018-07-24T09:07:02.809Z,98872.89
2018-07-24T09:09:31.873Z,98866.00
2018-07-24T09:12:00.882Z,98862.12
2018-07-24T09:14:29.844Z,98860.58
2018-07-24T09:16:58.812Z,98862.28
2018-07-24T09:19:27.828Z,98860.08
2018-07-24T09:21:56.888Z,98856.36
2018-07-24T09:24:25.897Z,98856.20
2018-07-24T09:26:55.130Z,98850.03
2018-07-24T09:29:24.120Z,98854.30
2018-07-24T09:31:53.100Z,98858.59
2018-07-24T09:34:22.088Z,98846.27
2018-07-24T09:36:51.111Z,98845.29
2018-07-24T09:39:20.154Z,98853.61
2018-07-24T09:41:49.232Z,98851.09
2018-07-24T09:44:18.315Z,98853.03
2018-07-24T09:46:47.302Z,98849.42
2018-07-24T09:49:16.325Z,98849.25
2018-07-24T09:51:45.373Z,98849.45
2018-07-24T09:54:14.333Z,98845.55
2018-07-24T09:56:43.352Z,98845.26
2018-07-24T09:59:12.399Z,98839.36
2018-07-24T10:01:41.393Z,98826.80
2018-07-24T10:04:10.367Z,98829.31
2018-07-24T10:06:39.317Z,98832.73
2018-07-24T10:09:10.296Z,98826.11
2018-07-24T10:11:39.304Z,98820.63
2018-07-24T10:14:08.280Z,98820.65
2018-07-24T10:16:37.348Z,98815.92
2018-07-24T10:19:06.378Z,98816.53
2018-07-24T10:21:35.436Z,98820.39
2018-07-24T10:24:04.444Z,98810.14
2018-07-24T10:26:33.566Z,98812.28
2018-07-24T10:29:02.529Z,98809.47
2018-07-24T10:31:31.573Z,98813.33
2018-07-24T10:34:00.640Z,98799.08
2018-07-24T10:36:29.792Z,98807.00
2018-07-24T10:38:58.768Z,98808.39
2018-07-24T10:41:27.793Z,98798.54
2018-07-24T10:43:56.840Z,98803.94
2018-07-24T10:46:25.816Z,98792.69
2018-07-24T10:48:54.767Z,98798.51
2018-07-24T10:51:23.768Z,98797.79
2018-07-24T10:53:52.795Z,98800.77
2018-07-24T10:56:21.814Z,98793.01
2018-07-24T10:58:50.838Z,98805.14
2018-07-24T11:01:19.937Z,98803.14
2018-07-24T11:03:49.021Z,98791.27
2018-07-24T11:06:18.115Z,98791.58
2018-07-24T11:08:47.192Z,98790.48
2018-07-24T11:11:16.233Z,98783.18
2018-07-24T11:13:45.359Z,98786.66
2018-07-24T11:16:14.399Z,98787.77
2018-07-24T11:18:43.499Z,98779.69
2018-07-24T11:21:12.471Z,98779.30
2018-07-24T11:23:41.501Z,98773.54
2018-07-24T11:26:10.500Z,98771.14
2018-07-24T11:28:39.577Z,98759.19
2018-07-24T11:31:08.731Z,98753.05
2018-07-24T11:33:37.774Z,98751.98
2018-07-24T11:36:06.977Z,98751.85
2018-07-24T11:38:36.147Z,98748.34
2018-07-24T11:41:05.287Z,98736.61
2018-07-24T11:43:34.385Z,98735.13
2018-07-24T11:46:03.522Z,98736.63
2018-07-24T11:48:32.613Z,98733.19
2018-07-24T11:51:01.618Z,98738.29
2018-07-24T11:53:30.717Z,98740.05
2018-07-24T11:55:59.743Z,98737.13
2018-07-24T11:58:28.841Z,98741.67
2018-07-24T12:00:57.885Z,98738.30
2018-07-24T12:03:26.944Z,98737.79
2018-07-24T12:05:55.970Z,98742.54
2018-07-24T12:08:24.989Z,98735.28
2018-07-24T12:10:54.076Z,98733.40
2018-07-24T12:13:23.040Z,98739.28
2018-07-24T12:15:51.999Z,98741.38
2018-07-24T12:18:20.989Z,98736.91
2018-07-24T12:20:50.013Z,98729.32
2018-07-24T12:23:19.092Z,98713.99
2018-07-24T12:25:48.064Z,98711.17
2018-07-24T12:28:17.154Z,98721.89
2018-07-24T12:30:46.177Z,98714.12
2018-07-24T12:33:15.171Z,98718.53
2018-07-24T12:35:44.203Z,98716.31
2018-07-24T12:38:13.249Z,98712.93
2018-07-24T12:40:42.258Z,98712.60
2018-07-24T12:43:11.294Z,98709.59
2018-07-24T12:45:40.328Z,98701.94
2018-07-24T12:48:09.377Z,98697.20
2018-07-24T12:50:38.384Z,98696.61
2018-07-24T12:53:07.567Z,98702.59
2018-07-24T12:55:36.513Z,98701.12
2018-07-24T12:58:05.618Z,98700.66
2018-07-24T13:00:34.679Z,98703.32
2018-07-24T13:03:03.715Z,98694.59
2018-07-24T13:05:32.708Z,98696.60
2018-07-24T13:08:01.853Z,98690.34
2018-07-24T13:10:30.898Z,98682.34
2018-07-24T13:13:00.130Z,98682.50
2018-07-24T13:15:29.151Z,98672.97
2018-07-24T13:17:58.157Z,98681.67
2018-07-24T13:20:27.261Z,98678.75
2018-07-24T13:22:56.299Z,98688.88
2018-07-24T13:25:25.328Z,98688.72
2018-07-24T13:27:54.440Z,98688.38
2018-07-24T13:30:23.505Z,98693.70
2018-07-24T13:32:52.676Z,98693.45
2018-07-24T13:35:21.692Z,98696.49
2018-07-24T13:37:50.666Z,98699.19
2018-07-24T13:40:19.827Z,98701.75
2018-07-24T13:42:48.793Z,98699.16
2018-07-24T13:45:17.845Z,98696.84
2018-07-24T13:47:46.885Z,98697.17
2018-07-24T13:50:16.021Z,98696.39
2018-07-24T13:52:45.090Z,98706.05
2018-07-24T13:55:14.118Z,98705.82
2018-07-24T13:57:43.088Z,98713.23
2018-07-24T14:00:12.159Z,98712.85
2018-07-24T14:02:41.256Z,98712.67
2018-07-24T14:05:10.338Z,98706.34
2018-07-24T14:07:39.456Z,98706.53
2018-07-24T14:10:08.513Z,98709.95
2018-07-24T14:12:37.540Z,98705.81
2018-07-24T14:15:06.729Z,98711.23
2018-07-24T14:17:35.771Z,98699.33
2018-07-24T14:20:04.961Z,98698.95
2018-07-24T14:22:34.107Z,98693.83
2018-07-24T14:25:03.164Z,98689.45
2018-07-24T14:27:32.857Z,98685.72
2018-07-24T14:30:01.992Z,98683.13
2018-07-24T14:32:30.984Z,98685.15
2018-07-24T14:35:00.017Z,98688.95
2018-07-24T14:37:28.996Z,98683.48
2018-07-24T14:39:58.061Z,98688.06
2018-07-24T14:42:27.154Z,98691.49
2018-07-24T14:44:56.229Z,98698.89
2018-07-24T14:47:25.312Z,98705.20
2018-07-24T14:49:54.266Z,98705.05
2018-07-24T14:52:23.273Z,98701.27
2018-07-24T14:54:52.324Z,98701.56
2018-07-24T14:57:21.320Z,98704.89
2018-07-24T14:59:50.378Z,98700.30
2018-07-24T15:02:19.333Z,98705.58
2018-07-24T15:04:48.496Z,98696.58
2018-07-24T15:07:17.431Z,98695.57
2018-07-24T15:09:46.460Z,98700.33
2018-07-24T15:12:15.428Z,98700.59
2018-07-24T15:14:44.430Z,98696.70
2018-07-24T15:17:28.152Z,98701.08
2018-07-24T15:19:57.284Z,98699.90
2018-07-24T15:22:26.464Z,98699.95
2018-07-24T15:24:55.480Z,98693.39
2018-07-24T15:27:24.479Z,98698.92
2018-07-24T15:29:53.500Z,98690.42
2018-07-24T15:32:22.512Z,98688.48
2018-07-24T15:34:51.594Z,98687.19
2018-07-24T15:37:20.557Z,98687.16
2018-07-24T15:39:49.589Z,98697.76
2018-07-24T15:42:18.613Z,98692.91
2018-07-24T15:44:47.780Z,98698.28
2018-07-24T15:47:16.744Z,98716.56
2018-07-24T15:49:45.688Z,98725.06
2018-07-24T15:52:14.747Z,98727.05
2018-07-24T15:54:43.786Z,98727.03
2018-07-24T15:57:12.825Z,98725.96
2018-07-24T15:59:41.795Z,98730.36
2018-07-24T16:02:10.871Z,98727.47
2018-07-24T16:04:39.890Z,98720.12
2018-07-24T16:07:14.372Z,98719.38
2018-07-24T16:09:43.490Z,98720.20
2018-07-24T16:12:12.496Z,98719.64
2018-07-24T16:14:41.572Z,98717.14
2018-07-24T16:17:10.561Z,98728.19
2018-07-24T16:19:39.594Z,98728.83
2018-07-24T16:22:08.787Z,98731.34
2018-07-24T16:24:37.912Z,98720.71
2018-07-24T16:27:06.913Z,98726.69
2018-07-24T16:29:35.999Z,98728.50
2018-07-24T16:32:05.064Z,98722.01
2018-07-24T16:34:34.047Z,98728.37
2018-07-24T16:37:03.367Z,98747.22
2018-07-24T16:39:32.364Z,98771.82
2018-07-24T16:42:01.392Z,98791.00
2018-07-24T16:44:30.652Z,98807.28
2018-07-24T16:46:59.776Z,98823.09
2018-07-24T16:49:28.771Z,98829.80
2018-07-24T16:51:57.794Z,98817.59
2018-07-24T16:54:26.892Z,98803.75
2018-07-24T16:56:55.859Z,98803.02
2018-07-24T16:59:24.849Z,98803.63
2018-07-24T17:01:53.894Z,98804.77
2018-07-24T17:04:22.966Z,98812.77
2018-07-24T17:06:51.948Z,98805.17
2018-07-24T17:09:20.948Z,98822.77
2018-07-24T17:11:50.010Z,98818.64
2018-07-24T17:14:19.019Z,98812.67
2018-07-24T17:16:48.056Z,98815.42
2018-07-24T17:19:17.140Z,98819.55
2018-07-24T17:21:46.269Z,98817.88
2018-07-24T17:24:15.312Z,98821.17
2018-07-24T17:26:44.357Z,98812.13
2018-07-24T17:29:13.431Z,98805.31
2018-07-24T17:31:42.526Z,98804.22
2018-07-24T17:34:11.628Z,98800.66
2018-07-24T17:36:40.620Z,98798.47
2018-07-24T17:39:10.557Z,98795.73
2018-07-24T17:41:39.767Z,98799.84
2018-07-24T17:44:08.883Z,98797.92
2018-07-24T17:46:38.230Z,98808.05
2018-07-24T17:49:07.661Z,98813.51
2018-07-24T17:51:36.692Z,98820.34
2018-07-24T17:54:05.732Z,98822.56
2018-07-24T17:56:34.802Z,98831.03
2018-07-24T17:59:03.857Z,98832.12
2018-07-24T18:01:32.921Z,98834.86
2018-07-24T18:04:02.025Z,98834.59
2018-07-24T18:06:31.046Z,98836.48
2018-07-24T18:09:00.146Z,98843.34
2018-07-24T18:11:29.134Z,98838.42
2018-07-24T18:13:58.215Z,98837.34
2018-07-24T18:16:27.279Z,98841.44
2018-07-24T18:18:56.379Z,98844.17
2018-07-24T18:21:25.545Z,98848.80
2018-07-24T18:23:54.555Z,98854.28
2018-07-24T18:26:23.537Z,98857.84
2018-07-24T18:28:52.627Z,98867.13
2018-07-24T18:31:21.686Z,98857.83
2018-07-24T18:33:50.702Z,98857.55
2018-07-24T18:36:19.821Z,98867.95
2018-07-24T18:38:48.956Z,98862.22
2018-07-24T18:41:17.929Z,98858.66
2018-07-24T18:43:46.903Z,98856.47
2018-07-24T18:46:16.090Z,98853.73
2018-07-24T18:48:45.122Z,98852.09
2018-07-24T18:51:14.113Z,98857.02
2018-07-24T18:53:43.144Z,98866.05
2018-07-24T18:56:12.289Z,98863.30
2018-07-24T18:58:41.360Z,98863.03
2018-07-24T19:01:10.380Z,98866.86
2018-07-24T19:03:39.465Z,98865.50
2018-07-24T19:06:08.424Z,98861.94
2018-07-24T19:08:37.404Z,98860.84
2018-07-24T19:11:06.432Z,98853.19
2018-07-24T19:13:35.517Z,98848.51
2018-07-24T19:16:04.525Z,98834.86
2018-07-24T19:18:33.492Z,98835.13
2018-07-24T19:21:02.934Z,98831.56
2018-07-24T19:23:31.971Z,98829.39
2018-07-24T19:26:01.199Z,98838.14
2018-07-24T19:28:30.242Z,98841.97
2018-07-24T19:30:59.348Z,98834.59
2018-07-24T19:33:28.705Z,98839.52
2018-07-24T19:35:57.722Z,98836.78
2018-07-24T19:38:26.797Z,98833.77
2018-07-24T19:40:55.772Z,98835.13
2018-07-24T19:43:24.900Z,98833.21
2018-07-24T19:45:53.920Z,98825.84
2018-07-24T19:48:22.973Z,98819.56
2018-07-24T19:50:52.092Z,98816.55
2018-07-24T19:53:21.216Z,98818.45
2018-07-24T19:55:50.303Z,98809.98
2018-07-24T19:58:19.308Z,98816.27
2018-07-24T20:00:48.306Z,98814.90
2018-07-24T20:03:17.312Z,98823.64
2018-07-24T20:05:46.362Z,98817.92
2018-07-24T20:08:15.374Z,98821.74
2018-07-24T20:10:44.455Z,98833.51
2018-07-24T20:13:13.489Z,98844.70
2018-07-24T20:15:42.476Z,98845.52
2018-07-24T20:18:11.465Z,98838.91
2018-07-24T20:20:40.435Z,98833.73
2018-07-24T20:23:09.697Z,98840.56
2018-07-24T20:25:38.640Z,98842.47
2018-07-24T20:28:07.690Z,98848.48
2018-07-24T20:30:36.720Z,98843.55
2018-07-24T20:33:05.725Z,98836.71
2018-07-24T20:35:34.741Z,98840.55
2018-07-24T20:38:03.769Z,98850.93
2018-07-24T20:40:32.802Z,98840.28
2018-07-24T20:43:01.829Z,98847.92
2018-07-24T20:45:30.929Z,98848.73
2018-07-24T20:47:59.901Z,98851.99
2018-07-24T20:50:28.933Z,98850.89
2018-07-24T20:52:57.949Z,98848.44
2018-07-24T20:55:26.988Z,98840.50
2018-07-24T20:57:55.984Z,98843.23
2018-07-24T21:00:24.994Z,98853.64
2018-07-24T21:02:54.024Z,98850.36
2018-07-24T21:05:22.988Z,98853.92
2018-07-24T21:07:52.011Z,98842.43
2018-07-24T21:10:21.052Z,98844.36
2018-07-24T21:12:50.788Z,98850.63
2018-07-24T21:15:20.320Z,98848.98
2018-07-24T21:17:49.344Z,98855.53
2018-07-24T21:20:18.355Z,98850.87
2018-07-24T21:22:47.373Z,98853.61
2018-07-24T21:25:16.407Z,98856.63
2018-07-24T21:27:45.380Z,98862.37
2018-07-24T21:30:14.389Z,98864.51
2018-07-24T21:32:43.372Z,98861.25
2018-07-24T21:35:12.360Z,98867.48
2018-07-24T21:37:41.412Z,98866.67
2018-07-24T21:40:10.416Z,98863.91
2018-07-24T21:42:39.492Z,98870.45
2018-07-24T21:45:08.462Z,98871.52
2018-07-24T21:47:37.611Z,98872.03
2018-07-24T21:50:06.584Z,98867.08
2018-07-24T21:52:35.721Z,98856.67
2018-07-24T21:55:04.714Z,98862.42
2018-07-24T21:57:33.824Z,98856.69
2018-07-24T22:00:02.879Z,98852.85
2018-07-24T22:02:31.977Z,98856.66
2018-07-24T22:05:01.057Z,98860.77
2018-07-24T22:07:30.142Z,98851.20
2018-07-24T22:09:59.192Z,98862.69
2018-07-24T22:12:28.173Z,98868.43
2018-07-24T22:14:57.190Z,98861.61
2018-07-24T22:17:26.224Z,98868.43
2018-07-24T22:19:55.192Z,98861.28
2018-07-24T22:22:24.364Z,98859.91
2018-07-24T22:24:53.482Z,98865.63
2018-07-24T22:27:22.529Z,98858.23
2018-07-24T22:29:51.527Z,98855.48
2018-07-24T22:32:20.487Z,98856.03
2018-07-24T22:34:49.484Z,98858.48
2018-07-24T22:37:18.449Z,98855.75
2018-07-24T22:39:47.440Z,98855.77
2018-07-24T22:42:16.472Z,98855.48
2018-07-24T22:44:45.508Z,98857.44
2018-07-24T22:47:14.773Z,98861.55
2018-07-24T22:49:43.805Z,98865.64
2018-07-24T22:52:12.827Z,98871.39
2018-07-24T22:54:41.840Z,98872.46
2018-07-24T22:57:10.928Z,98873.00
2018-07-24T22:59:40.011Z,98871.66
2018-07-24T23:02:09.081Z,98870.03
2018-07-24T23:04:38.101Z,98870.05
2018-07-24T23:07:07.079Z,98865.99
2018-07-24T23:09:36.083Z,98865.17
2018-07-24T23:12:05.279Z,98865.97
2018-07-24T23:14:34.419Z,98866.20
2018-07-24T23:17:03.576Z,98864.00
2018-07-24T23:19:32.674Z,98862.30
2018-07-24T23:22:01.680Z,98861.21
2018-07-24T23:24:30.736Z,98864.48
2018-07-24T23:26:59.838Z,98866.94
2018-07-24T23:29:28.833Z,98862.85
2018-07-24T23:31:57.862Z,98858.78
2018-07-24T23:34:26.957Z,98860.42
2018-07-24T23:36:56.053Z,98867.25
2018-07-24T23:39:25.020Z,98863.67
2018-07-24T23:41:54.103Z,98871.33
2018-07-24T23:44:23.196Z,98869.12
2018-07-24T23:46:52.287Z,98865.30
2018-07-24T23:49:21.250Z,98878.97
2018-07-24T23:51:50.236Z,98879.27
2018-07-24T23:54:19.322Z,98881.75
2018-07-24T23:56:48.312Z,98885.06
2018-07-24T23:59:17.357Z,98881.88
